This is the latest recevied weather packets stored in our database for station/object IU8HRV-10. If no packets are shown the sender has not sent any weather packets the latest 10 day(s).
| Time | Temp. | Humidity | Pressure | Rain* | Wind** | Luminosity | Snow |
|---|---|---|---|---|---|---|---|
| 1778241516 | 28.33° C | 38% | 1013 hPa | - | - | - | - |
| 1778240615 | 27.22° C | 39% | 1013 hPa | - | - | - | - |
| 1778239713 | 27.22° C | 38% | 1013 hPa | - | - | - | - |
| 1778238812 | 26.67° C | 39% | 1013 hPa | - | - | - | - |
| 1778237911 | 26.11° C | 40% | 1013 hPa | - | - | - | - |
| 1778237009 | 26.11° C | 40% | 1013 hPa | - | - | - | - |
| 1778236108 | 26.11° C | 39% | 1013 hPa | - | - | - | - |
| 1778235207 | 25.56° C | 40% | 1013 hPa | - | - | - | - |
| 1778234306 | 25° C | 40% | 1013 hPa | - | - | - | - |
| 1778233405 | 25° C | 39% | 1013 hPa | - | - | - | - |
| 1778232504 | 25.56° C | 39% | 1013 hPa | - | - | - | - |
| 1778231603 | 25.56° C | 39% | 1013 hPa | - | - | - | - |
| 1778230702 | 23.89° C | 42% | 1013 hPa | - | - | - | - |
| 1778229801 | 24.44° C | 40% | 1013 hPa | - | - | - | - |
| 1778228900 | 24.44° C | 40% | 1013 hPa | - | - | - | - |
| 1778227999 | 24.44° C | 40% | 1013 hPa | - | - | - | - |
| 1778227098 | 25° C | 40% | 1013 hPa | - | - | - | - |
| 1778226197 | 24.44° C | 40% | 1013 hPa | - | - | - | - |
| 1778225295 | 25° C | 40% | 1012 hPa | - | - | - | - |
| 1778224394 | 23.89° C | 40% | 1012 hPa | - | - | - | - |
| 1778223493 | 24.44° C | 40% | 1012 hPa | - | - | - | - |
| 1778222592 | 23.33° C | 42% | 1012 hPa | - | - | - | - |
| 1778221691 | 21.67° C | 46% | 1012 hPa | - | - | - | - |
| 1778220789 | 21.11° C | 47% | 1012 hPa | - | - | - | - |
| 1778219888 | 20.56° C | 49% | 1012 hPa | - | - | - | - |
* Rain since midnight (hover to see other rain measurements)
** Current wind speed in m/s (hover to see current wind gust speed)